PLZ weather

Pista Lazaro Cardenas
Mexicali, Baja California, Mexico

Public forecast

Using degrees Celsius for public forecast. Weather courtesy of forecast.io.

METAR (pilot weather report)

Closest report is General Rodolfo Sánchez Taboada International Airport, 12.1 nm (22.5 km) W. Retrieved 2019/08/26 07:41 UTC (37 minutes ago):

MMML 260741Z 14003KT 10SM FEW200 30/21 A2980 RMK 8/002

TAF (pilot weather forecast)

Closest forecast is General Rodolfo Sánchez Taboada International Airport, 12.1 nm (22.5 km) W. Retrieved 2019/08/26 06:28 UTC (2 hours ago):

TAF MMML 260421Z 2606/2706 14006KT P6SM SCT250 FM261800 14010KT P6SM SCT030 BKN250 FM270500 14005KT P6SM SCT250